Phantom Of The Sea — CFN6329 — position and weather

sailwx.info

Track history (hours):
 
Tides and Currents Weather Stations Pressure Air Temp Water Temp Dewpoint Dewpoint Depression Visibility Wind Speed Wind Dir Waves Ship Positions

Phantom Of The Sea

Last reported at 2017-Oct-30 00:08 UTC. Time now 2017-Nov-20 13:35 UTC.
Position N 49°00' W 123°49'.
Warning: this ship's position is 21 days out of date.

Length 20 m.

Type: Pleasure craft. MMSI: 316023545.

Date/timePositionNaut miles runAvg speedWind from/ knotsBaromVisibWave heightAir tempDewpointWater temp
2017-Oct-30 00:08N 49°00' W 123°49'2 8.6
2017-Oct-29 23:56N 48°59' W 123°47'915.6
2017-Oct-29 23:20N 48°53' W 123°37'23 8.8
2017-Oct-29 20:42N 48°35' W 123°14'315.0
2017-Oct-29 20:30N 48°33' W 123°11'915.5
2017-Oct-29 19:55N 48°27' W 123°01'32 8.1
2017-Oct-29 15:59N 48°05' W 122°26'8 8.0
2017-Oct-29 14:58N 47°60' W 122°17'2 4.8
2017-Oct-29 14:30N 47°59' W 122°14'0 0.7
2017-Oct-29 13:57N 47°60' W 122°13'0 0.0
2017-Oct-29 13:27N 47°60' W 122°13'0 0.0
2017-Oct-29 12:57N 47°60' W 122°13'0 0.0
2017-Oct-29 12:27N 47°60' W 122°13'0 0.0
2017-Oct-29 11:57N 47°60' W 122°13'0 0.0
2017-Oct-29 11:27N 47°60' W 122°13'0 0.0
2017-Oct-29 11:00N 47°60' W 122°13'0 0.0
2017-Oct-29 10:27N 47°60' W 122°13'0 0.0
2017-Oct-29 09:57N 47°60' W 122°13'0 0.0
2017-Oct-29 09:15N 47°60' W 122°13'0 0.0
2017-Oct-29 09:00N 47°60' W 122°13'0 0.0
2017-Oct-29 08:27N 47°60' W 122°13'0 0.0
2017-Oct-29 07:57N 47°60' W 122°13'0 0.0
2017-Oct-29 07:27N 47°60' W 122°13'0 0.0
2017-Oct-29 06:54N 47°60' W 122°13'0 0.0
2017-Oct-29 06:18N 47°60' W 122°13'0 0.0
2017-Oct-29 06:00N 47°60' W 122°13'0 0.0
2017-Oct-29 05:27N 47°60' W 122°13'0 0.0
2017-Oct-29 04:51N 47°60' W 122°13'0 0.0
2017-Oct-29 04:30N 47°60' W 122°13'0 0.0
2017-Oct-29 04:00N 47°60' W 122°13'22 0.8
2017-Oct-27 23:07N 47°38' W 122°20'0 0.0
2017-Oct-27 22:56N 47°38' W 122°20'0 0.0
2017-Oct-27 22:28N 47°38' W 122°20'0 0.0
2017-Oct-27 21:58N 47°38' W 122°20'0 0.0
2017-Oct-27 21:25N 47°38' W 122°20'0 0.0
2017-Oct-27 20:58N 47°38' W 122°20'0 0.0
2017-Oct-27 20:28N 47°38' W 122°20'0 0.0
2017-Oct-27 19:58N 47°38' W 122°20'0 0.0
2017-Oct-27 19:28N 47°38' W 122°20'0 0.0
2017-Oct-27 18:58N 47°38' W 122°20'0 0.0
2017-Oct-27 18:22N 47°38' W 122°20'0 0.0
2017-Oct-27 17:54N 47°38' W 122°20'0 0.0
2017-Oct-27 17:25N 47°38' W 122°20'0 0.0
2017-Oct-27 17:00N 47°38' W 122°20'0 0.0
2017-Oct-27 16:27N 47°38' W 122°20'0 0.0
2017-Oct-26 17:08N 47°38' W 122°20'0 0.0
2017-Oct-26 16:05N 47°38' W 122°20'0 0.0
2017-Oct-26 15:50N 47°38' W 122°20'0 0.0
2017-Oct-24 22:01N 47°38' W 122°20'0 0.0
2017-Oct-24 21:52N 47°38' W 122°20'0 0.0
2017-Oct-24 21:19N 47°38' W 122°20'0 0.0
2017-Oct-24 19:49N 47°38' W 122°20'0 0.0
2017-Oct-24 16:25N 47°38' W 122°20'  
Track history (hours):
 
Tides and Currents Weather Stations Pressure Air Temp Water Temp Dewpoint Dewpoint Depression Visibility Wind Speed Wind Dir Waves Ship Positions

Phantom Of The Sea

Last reported at 2017-Oct-30 00:08 UTC. Time now 2017-Nov-20 13:35 UTC.
Position N 49°00' W 123°49'.
Warning: this ship's position is 21 days out of date.

Length 20 m.

Type: Pleasure craft. MMSI: 316023545.

Date/timePositionNaut miles runAvg speedWind from/ knotsBaromVisibWave heightAir tempDewpointWater temp
2017-Oct-30 00:08N 49°00' W 123°49'2 8.6
2017-Oct-29 23:56N 48°59' W 123°47'915.6
2017-Oct-29 23:20N 48°53' W 123°37'23 8.8
2017-Oct-29 20:42N 48°35' W 123°14'315.0
2017-Oct-29 20:30N 48°33' W 123°11'915.5
2017-Oct-29 19:55N 48°27' W 123°01'32 8.1
2017-Oct-29 15:59N 48°05' W 122°26'8 8.0
2017-Oct-29 14:58N 47°60' W 122°17'2 4.8
2017-Oct-29 14:30N 47°59' W 122°14'0 0.7
2017-Oct-29 13:57N 47°60' W 122°13'0 0.0
2017-Oct-29 13:27N 47°60' W 122°13'0 0.0
2017-Oct-29 12:57N 47°60' W 122°13'0 0.0
2017-Oct-29 12:27N 47°60' W 122°13'0 0.0
2017-Oct-29 11:57N 47°60' W 122°13'0 0.0
2017-Oct-29 11:27N 47°60' W 122°13'0 0.0
2017-Oct-29 11:00N 47°60' W 122°13'0 0.0
2017-Oct-29 10:27N 47°60' W 122°13'0 0.0
2017-Oct-29 09:57N 47°60' W 122°13'0 0.0
2017-Oct-29 09:15N 47°60' W 122°13'0 0.0
2017-Oct-29 09:00N 47°60' W 122°13'0 0.0
2017-Oct-29 08:27N 47°60' W 122°13'0 0.0
2017-Oct-29 07:57N 47°60' W 122°13'0 0.0
2017-Oct-29 07:27N 47°60' W 122°13'0 0.0
2017-Oct-29 06:54N 47°60' W 122°13'0 0.0
2017-Oct-29 06:18N 47°60' W 122°13'0 0.0
2017-Oct-29 06:00N 47°60' W 122°13'0 0.0
2017-Oct-29 05:27N 47°60' W 122°13'0 0.0
2017-Oct-29 04:51N 47°60' W 122°13'0 0.0
2017-Oct-29 04:30N 47°60' W 122°13'0 0.0
2017-Oct-29 04:00N 47°60' W 122°13'22 0.8
2017-Oct-27 23:07N 47°38' W 122°20'0 0.0
2017-Oct-27 22:56N 47°38' W 122°20'0 0.0
2017-Oct-27 22:28N 47°38' W 122°20'0 0.0
2017-Oct-27 21:58N 47°38' W 122°20'0 0.0
2017-Oct-27 21:25N 47°38' W 122°20'0 0.0
2017-Oct-27 20:58N 47°38' W 122°20'0 0.0
2017-Oct-27 20:28N 47°38' W 122°20'0 0.0
2017-Oct-27 19:58N 47°38' W 122°20'0 0.0
2017-Oct-27 19:28N 47°38' W 122°20'0 0.0
2017-Oct-27 18:58N 47°38' W 122°20'0 0.0
2017-Oct-27 18:22N 47°38' W 122°20'0 0.0
2017-Oct-27 17:54N 47°38' W 122°20'0 0.0
2017-Oct-27 17:25N 47°38' W 122°20'0 0.0
2017-Oct-27 17:00N 47°38' W 122°20'0 0.0
2017-Oct-27 16:27N 47°38' W 122°20'0 0.0
2017-Oct-26 17:08N 47°38' W 122°20'0 0.0
2017-Oct-26 16:05N 47°38' W 122°20'0 0.0
2017-Oct-26 15:50N 47°38' W 122°20'0 0.0
2017-Oct-24 22:01N 47°38' W 122°20'0 0.0
2017-Oct-24 21:52N 47°38' W 122°20'0 0.0
2017-Oct-24 21:19N 47°38' W 122°20'0 0.0
2017-Oct-24 19:49N 47°38' W 122°20'0 0.0
2017-Oct-24 16:25N 47°38' W 122°20'  

Dump ship's entire track history